Kitsissorsuit

KL  EN  DA
ASIAQ
Weather Now GREENLAND SURVEY
Updated [WGT/WGST] Temperature [°C] Wind [m/s] Air pressure [hPa] Relative humidity [%] Precipitation [mm]
Present Wind chill Speed Max
21.01 20:00-17,2-28,27,2 ⇗8,899284n/a
21.01 19:00-16,4-26,05,7 ⇑7,299283n/a
21.01 18:00-16,3-25,45,1 ⇑6,799182n/a
21.01 17:00-16,2-25,85,7 ⇑7,799182n/a
21.01 16:00-16,3-27,07,2 ⇑9,399079n/a
21.01 15:00-16,2-26,26,2 ⇑7,299080n/a
21.01 14:00-16,4-25,55,1 ⇑6,298976n/a
21.01 13:00-16,7-27,57,2 ⇑8,898976n/a
21.01 12:00-16,5-28,28,8 ⇑11,398875n/a
21.01 11:00-16,7-30,011,8 ⇑14,498776n/a
21.01 10:00-16,6-30,312,9 ⇑14,998677n/a
21.01 09:00-16,5-30,413,4 ⇑17,098676n/a
21.01 08:00-16,5-30,012,4 ⇑16,098475n/a
21.01 07:00-16,9-31,113,9 ⇑16,598472n/a
21.01 06:00-16,9-30,913,4 ⇑17,598378n/a
21.01 05:00-17,6-31,712,9 ⇑17,598273n/a
21.01 04:00-17,4-31,613,4 ⇑16,598075n/a
21.01 03:00-16,1-28,510,3 ⇑14,498078n/a
21.01 02:00-16,1-28,510,3 ⇑12,998083n/a
21.01 01:00-16,1-27,78,8 ⇑11,898083n/a
21.01 00:00-15,7-26,88,2 ⇑11,898084n/a
20.01 23:00-16,1-27,78,8 ⇑12,998082n/a
20.01 22:00-15,8-27,69,3 ⇑11,398185n/a
20.01 21:00-14,6-26,39,8 ⇑12,998184n/a
20.01 20:00-13,7-24,89,3 ⇑16,598180n/a
Position: (74.0605555555,-57.723055555555)

[Back]